Time;durP1;ratioP1;P1;durP2;ratioP2;P2;SDS_P1;SDS_P2;PMS_P1;PMS_P2;Temp;Humidity;BMP_temperature;BMP_pressure;BME280_temperature;BME280_humidity;BME280_pressure;Samples;Min_cycle;Max_cycle;Signal;HPM_P1;HPM_P2
2022/04/20 00:01:46;;;;;;;7.83;7.27;;;;;;;13.04;48.03;100436.19;5066735;28;20044;-79
2022/04/20 00:04:13;;;;;;;7.50;7.00;;;;;;;12.85;48.29;100400.84;5070187;28;20051;-79
2022/04/20 00:06:40;;;;;;;7.40;7.00;;;;;;;13.08;48.15;100441.22;5059090;28;20105;-78
2022/04/20 00:09:07;;;;;;;8.17;7.50;;;;;;;12.90;48.07;100417.63;5066397;28;20080;-76
2022/04/20 00:11:34;;;;;;;9.83;8.90;;;;;;;12.97;48.01;100441.34;5070579;28;20048;-81
2022/04/20 00:14:03;;;;;;;8.37;7.87;;;;;;;12.95;47.92;100431.56;5067672;28;20567;-82
2022/04/20 00:16:30;;;;;;;7.72;7.18;;;;;;;12.87;47.77;100421.03;5070238;28;20046;-84
2022/04/20 00:18:57;;;;;;;7.97;7.43;;;;;;;13.02;47.72;100446.91;5069225;28;20056;-80
2022/04/20 00:21:26;;;;;;;9.07;8.03;;;;;;;12.97;47.66;100432.94;5072236;28;20071;-80
2022/04/20 00:23:54;;;;;;;9.10;8.53;;;;;;;12.99;47.86;100436.28;5064008;28;20083;-81
2022/04/20 00:26:21;;;;;;;10.03;9.10;;;;;;;12.79;47.82;100400.09;5071032;28;20067;-78
2022/04/20 00:28:49;;;;;;;9.00;8.40;;;;;;;12.91;47.55;100422.91;5053026;28;20109;-78
2022/04/20 00:31:16;;;;;;;9.50;8.83;;;;;;;12.63;47.79;100381.81;5072371;28;20091;-78
2022/04/20 00:33:43;;;;;;;9.00;8.37;;;;;;;12.87;47.87;100421.84;5064230;28;20086;-78
2022/04/20 00:36:09;;;;;;;8.53;7.83;;;;;;;12.78;47.75;100413.25;5072751;28;20083;-79
2022/04/20 00:38:37;;;;;;;9.10;8.30;;;;;;;12.74;47.75;100406.59;5062455;28;20530;-79
2022/04/20 00:41:05;;;;;;;9.73;8.50;;;;;;;12.57;47.89;100387.44;5072702;28;20102;-80
2022/04/20 00:43:32;;;;;;;9.03;8.33;;;;;;;12.78;47.96;100412.41;5071638;28;20570;-81
2022/04/20 00:46:03;;;;;;;9.47;8.77;;;;;;;12.76;48.04;100417.50;5072855;28;20075;-81
2022/04/20 00:48:32;;;;;;;8.57;8.00;;;;;;;12.29;48.12;100340.75;5071414;28;20056;-81
2022/04/20 00:50:59;;;;;;;9.60;9.10;;;;;;;12.27;48.20;100360.66;5073469;28;20048;-79
2022/04/20 00:53:26;;;;;;;9.77;8.23;;;;;;;12.49;48.14;100390.09;5070529;28;20127;-77
2022/04/20 00:55:52;;;;;;;8.30;7.60;;;;;;;12.59;48.13;100394.75;5086422;28;20091;-78
2022/04/20 00:58:19;;;;;;;9.10;8.20;;;;;;;12.41;48.20;100377.56;5071163;28;20124;-75
2022/04/20 01:00:47;;;;;;;8.67;8.17;;;;;;;12.46;48.52;100394.31;5069160;28;20048;-77
2022/04/20 01:03:14;;;;;;;8.90;8.20;;;;;;;12.32;48.36;100380.19;5072436;28;20055;-76
2022/04/20 01:05:41;;;;;;;9.03;8.33;;;;;;;12.51;48.35;100399.00;5076590;28;20587;-78
2022/04/20 01:08:07;;;;;;;7.77;7.37;;;;;;;12.38;48.54;100378.16;5051247;28;20483;-77
2022/04/20 01:10:35;;;;;;;8.50;7.90;;;;;;;12.47;48.59;100393.16;5072350;28;20461;-76
2022/04/20 01:13:02;;;;;;;8.50;7.80;;;;;;;12.42;48.57;100396.03;5073330;28;20056;-77
2022/04/20 01:15:31;;;;;;;8.70;7.90;;;;;;;12.45;48.64;100395.44;5065659;28;20614;-77
2022/04/20 01:17:58;;;;;;;8.63;7.70;;;;;;;12.31;48.65;100374.88;5071703;28;20512;-77
2022/04/20 01:20:25;;;;;;;9.23;8.33;;;;;;;12.31;48.86;100384.13;5071051;28;20127;-77
2022/04/20 01:22:52;;;;;;;8.30;7.57;;;;;;;12.27;48.79;100382.19;5072592;28;20136;-77
2022/04/20 01:25:18;;;;;;;8.60;7.90;;;;;;;12.12;48.88;100368.38;5068364;28;20087;-76
2022/04/20 01:27:45;;;;;;;8.80;8.10;;;;;;;12.12;49.00;100363.59;5070916;28;20081;-76
2022/04/20 01:30:12;;;;;;;8.97;7.67;;;;;;;12.20;48.98;100381.72;5071610;28;20591;-76
2022/04/20 01:32:40;;;;;;;8.30;7.80;;;;;;;12.21;48.99;100373.03;5073422;28;21435;-77
2022/04/20 01:35:08;;;;;;;8.57;7.97;;;;;;;12.27;49.08;100385.84;5076196;28;20551;-78
2022/04/20 01:37:35;;;;;;;8.73;8.03;;;;;;;11.93;49.05;100343.06;5071360;28;20052;-77
2022/04/20 01:40:02;;;;;;;9.63;9.13;;;;;;;12.25;49.07;100385.28;5069466;28;20135;-78
2022/04/20 01:42:29;;;;;;;9.63;9.03;;;;;;;12.13;49.04;100358.81;5073106;28;20460;-77
2022/04/20 01:44:56;;;;;;;9.23;8.53;;;;;;;11.95;49.11;100330.47;5065183;28;20088;-80
2022/04/20 01:47:26;;;;;;;9.43;8.83;;;;;;;12.19;49.29;100363.25;5074160;28;20136;-80
2022/04/20 01:49:55;;;;;;;8.90;8.27;;;;;;;12.16;49.29;100355.44;5071453;28;20051;-82
2022/04/20 01:52:24;;;;;;;9.63;8.93;;;;;;;12.23;49.17;100369.91;5061535;28;20087;-80
2022/04/20 01:54:50;;;;;;;8.97;8.00;;;;;;;11.94;49.42;100331.59;5074694;28;20123;-80
2022/04/20 01:57:17;;;;;;;9.23;8.63;;;;;;;12.21;49.45;100364.63;5075425;28;20075;-79
2022/04/20 01:59:47;;;;;;;9.40;8.67;;;;;;;12.09;49.52;100353.81;5074575;28;20091;-80
2022/04/20 02:04:59;;;;;;;9.00;8.40;;;;;;;11.87;49.66;100331.09;5064533;28;20052;-77
2022/04/20 02:07:26;;;;;;;8.20;7.63;;;;;;;12.00;49.80;100350.00;5071986;28;20040;-78
2022/04/20 02:09:53;;;;;;;8.77;8.27;;;;;;;11.98;49.92;100343.03;5065873;28;20060;-77
2022/04/20 02:12:20;;;;;;;8.77;8.27;;;;;;;11.91;49.93;100350.94;5061072;28;20139;-77
2022/04/20 02:14:47;;;;;;;10.43;8.90;;;;;;;11.91;50.10;100362.13;5069630;28;20127;-76
2022/04/20 02:17:14;;;;;;;8.77;8.17;;;;;;;11.84;49.98;100340.09;5062401;28;20131;-78
2022/04/20 02:19:41;;;;;;;8.67;8.17;;;;;;;11.85;49.57;100327.75;5074964;28;20079;-78
2022/04/20 02:22:08;;;;;;;8.70;8.07;;;;;;;11.89;50.04;100348.41;5074357;28;20131;-77
2022/04/20 02:24:34;;;;;;;10.47;8.60;;;;;;;11.74;50.09;100337.34;5071544;28;20080;-78
2022/04/20 02:27:01;;;;;;;8.87;8.27;;;;;;;11.63;50.27;100331.84;5071926;28;20080;-77
2022/04/20 02:29:28;;;;;;;9.97;8.93;;;;;;;11.63;50.38;100331.84;5088346;28;20084;-77
2022/04/20 02:31:56;;;;;;;10.67;9.87;;;;;;;11.74;50.19;100340.97;5072815;28;20054;-76
2022/04/20 02:34:23;;;;;;;9.20;8.60;;;;;;;11.57;50.35;100316.25;5079099;28;20083;-77
2022/04/20 02:36:50;;;;;;;8.73;8.00;;;;;;;11.54;50.27;100310.41;5080882;28;20075;-78
2022/04/20 02:39:18;;;;;;;9.50;8.83;;;;;;;11.59;50.41;100322.38;5084835;28;20072;-76
2022/04/20 02:41:45;;;;;;;9.00;8.50;;;;;;;11.57;50.43;100307.84;5081018;28;20079;-80
2022/04/20 02:44:14;;;;;;;9.40;8.70;;;;;;;11.72;50.25;100336.81;5074887;28;20446;-79
2022/04/20 02:46:42;;;;;;;8.20;7.60;;;;;;;11.72;50.17;100336.81;5083257;28;20143;-80
2022/04/20 02:49:09;;;;;;;9.60;8.80;;;;;;;11.79;50.41;100331.69;5078028;28;20087;-81
2022/04/20 02:51:36;;;;;;;8.97;8.47;;;;;;;11.67;50.39;100323.72;5074147;28;20075;-80
2022/04/20 02:54:03;;;;;;;9.17;8.43;;;;;;;11.65;50.16;100319.53;5074915;28;20132;-81
2022/04/20 02:56:30;;;;;;;8.50;7.97;;;;;;;11.61;50.07;100306.13;5073897;28;20462;-81
2022/04/20 02:58:56;;;;;;;8.63;8.03;;;;;;;11.63;50.31;100317.03;5064555;28;20096;-83
2022/04/20 03:01:26;;;;;;;9.33;8.60;;;;;;;11.60;50.89;100307.25;5075251;28;20084;-81
2022/04/20 03:03:58;;;;;;;8.07;7.53;;;;;;;11.57;50.45;100299.44;5078592;28;20053;-81
2022/04/20 03:06:27;;;;;;;8.50;8.00;;;;;;;11.65;50.91;100317.56;5083904;28;20048;-80
2022/04/20 03:08:54;;;;;;;8.77;8.17;;;;;;;11.68;50.66;100324.53;5091215;28;20048;-80
2022/04/20 03:11:22;;;;;;;8.40;7.90;;;;;;;11.67;50.56;100328.47;5092132;28;20052;-81
2022/04/20 03:13:49;;;;;;;8.60;7.97;;;;;;;11.29;50.38;100255.53;5090209;28;20045;-80
2022/04/20 03:16:16;;;;;;;8.80;8.40;;;;;;;11.52;50.27;100299.53;5096801;28;20041;-82
2022/04/20 03:18:43;;;;;;;8.93;8.37;;;;;;;11.62;50.64;100321.81;5092852;28;20120;-81
2022/04/20 03:21:10;;;;;;;8.10;7.60;;;;;;;11.57;50.52;100307.84;5064415;28;20059;-81
2022/04/20 03:23:36;;;;;;;8.03;7.60;;;;;;;11.74;50.48;100331.75;5071975;28;20526;-82
2022/04/20 03:26:06;;;;;;;7.90;7.40;;;;;;;11.67;50.28;100320.09;5068367;28;20124;-83
2022/04/20 03:28:34;;;;;;;8.73;8.23;;;;;;;11.66;50.46;100321.19;5065285;28;20098;-81
2022/04/20 03:31:01;;;;;;;8.27;7.77;;;;;;;11.72;50.30;100325.63;5071868;28;20087;-77
2022/04/20 03:33:30;;;;;;;8.13;7.63;;;;;;;11.59;50.37;100311.19;5070168;28;20052;-75
2022/04/20 03:35:57;;;;;;;8.73;8.23;;;;;;;11.65;50.47;100325.13;5057953;28;20468;-78
2022/04/20 03:38:24;;;;;;;8.10;7.60;;;;;;;11.61;50.71;100331.28;5069662;28;20068;-78
2022/04/20 03:40:53;;;;;;;8.27;7.53;;;;;;;11.52;50.74;100323.81;5068174;28;20528;-76
2022/04/20 03:43:20;;;;;;;9.57;7.82;;;;;;;11.55;50.93;100321.28;5069086;28;20052;-76
2022/04/20 03:45:47;;;;;;;8.57;7.90;;;;;;;11.51;50.80;100314.59;5071181;28;20071;-75
2022/04/20 03:48:14;;;;;;;8.77;8.30;;;;;;;11.56;50.74;100317.38;5066559;28;20490;-84
2022/04/20 03:50:41;;;;;;;8.57;8.07;;;;;;;11.48;50.54;100298.41;5072398;28;20500;-82
2022/04/20 03:53:08;;;;;;;8.27;7.87;;;;;;;11.60;50.54;100318.44;5070368;28;20200;-83
2022/04/20 03:55:34;;;;;;;8.57;8.00;;;;;;;11.54;50.63;100319.63;5071595;28;20110;-83
2022/04/20 03:58:01;;;;;;;9.33;8.63;;;;;;;11.25;50.68;100276.81;5053649;28;20450;-84
2022/04/20 04:00:29;;;;;;;8.60;8.20;;;;;;;11.45;51.05;100326.94;5064111;28;20083;-83
2022/04/20 04:02:56;;;;;;;8.63;7.87;;;;;;;11.20;50.93;100282.44;5073577;28;20052;-84
2022/04/20 04:05:23;;;;;;;7.70;7.30;;;;;;;11.34;51.24;100315.03;5064027;28;20444;-85
2022/04/20 04:07:50;;;;;;;7.03;6.63;;;;;;;11.27;51.25;100302.50;5071653;28;20575;-82
2022/04/20 04:10:18;;;;;;;7.80;7.30;;;;;;;11.26;51.23;100298.06;5067498;28;20079;-82
2022/04/20 04:12:45;;;;;;;8.57;7.77;;;;;;;10.97;51.22;100265.25;5070243;28;20064;-82
2022/04/20 04:15:11;;;;;;;7.97;7.20;;;;;;;11.07;51.46;100287.56;5064584;28;20155;-79
2022/04/20 04:17:38;;;;;;;8.40;7.53;;;;;;;11.19;51.72;100312.34;5072900;28;20075;-78
2022/04/20 04:20:07;;;;;;;8.83;8.10;;;;;;;11.13;51.74;100307.91;5061853;28;20094;-78
2022/04/20 04:22:36;;;;;;;8.43;7.93;;;;;;;11.03;51.82;100292.06;5071375;28;20127;-79
2022/04/20 04:25:04;;;;;;;8.40;7.90;;;;;;;11.04;51.92;100296.53;5061555;28;20461;-77
2022/04/20 04:27:31;;;;;;;7.87;7.47;;;;;;;10.94;51.70;100281.78;5067140;28;20589;-83
2022/04/20 04:29:59;;;;;;;9.80;9.17;;;;;;;10.96;52.00;100299.94;5064489;28;20131;-81
2022/04/20 04:32:26;;;;;;;8.13;7.50;;;;;;;10.94;51.99;100299.41;5070458;28;20072;-82
2022/04/20 04:34:53;;;;;;;7.97;7.53;;;;;;;10.79;51.86;100277.13;5071742;28;20136;-85
2022/04/20 04:37:24;;;;;;;8.47;7.97;;;;;;;10.73;51.99;100272.69;5063477;28;20048;-87
2022/04/20 04:39:51;;;;;;;8.60;8.10;;;;;;;10.89;52.02;100314.22;5070980;28;20522;-86
2022/04/20 04:42:18;;;;;;;8.53;7.83;;;;;;;10.72;52.03;100279.41;5055908;28;20058;-87
2022/04/20 04:44:46;;;;;;;8.30;7.60;;;;;;;10.68;52.23;100282.78;5066472;28;20135;-86
2022/04/20 04:50:01;;;;;;;8.17;7.50;;;;;;;10.66;52.37;100293.38;5069899;28;20075;-83
2022/04/20 04:52:28;;;;;;;7.80;7.40;;;;;;;10.62;52.72;100291.47;5069682;28;20565;-84
2022/04/20 04:54:55;;;;;;;8.07;7.67;;;;;;;10.53;52.76;100277.28;5032943;28;950989;-84
2022/04/20 04:57:22;;;;;;;8.67;8.07;;;;;;;10.66;52.88;100296.19;5053834;28;20388;-84
2022/04/20 04:59:49;;;;;;;8.27;7.70;;;;;;;10.77;52.82;100310.09;5066977;28;20124;-79
2022/04/20 05:02:20;;;;;;;7.70;7.30;;;;;;;10.59;52.84;100287.28;5054763;28;20053;-81
2022/04/20 05:04:47;;;;;;;7.97;7.37;;;;;;;10.70;52.77;100298.41;5073202;28;20055;-84
2022/04/20 05:07:14;;;;;;;7.47;7.00;;;;;;;10.87;53.05;100326.78;5065418;28;20128;-84
2022/04/20 05:09:41;;;;;;;7.70;7.30;;;;;;;10.81;52.73;100305.63;5067564;28;20105;-83
2022/04/20 05:12:10;;;;;;;8.30;7.60;;;;;;;10.92;52.26;100293.25;5070737;28;20074;-84
2022/04/20 05:14:40;;;;;;;7.25;6.85;;;;;;;10.92;52.06;100298.84;5069370;28;20459;-86
2022/04/20 05:17:07;;;;;;;7.80;7.30;;;;;;;11.03;51.64;100308.81;5069754;28;20141;-82
2022/04/20 05:19:34;;;;;;;7.60;7.10;;;;;;;10.96;51.76;100291.56;5063987;28;20045;-82
2022/04/20 05:22:04;;;;;;;7.80;7.30;;;;;;;10.99;52.12;100299.34;5056337;28;20464;-78
2022/04/20 05:24:35;;;;;;;8.37;7.80;;;;;;;10.74;52.63;100277.19;5073079;28;20048;-77
2022/04/20 05:27:03;;;;;;;8.03;7.43;;;;;;;10.65;52.74;100262.97;5053482;28;20049;-78
2022/04/20 05:29:30;;;;;;;7.83;7.43;;;;;;;10.60;53.01;100277.81;5065717;28;20073;-77
2022/04/20 05:31:59;;;;;;;8.33;7.87;;;;;;;10.76;52.97;100309.25;5050604;28;20048;-76
2022/04/20 05:34:31;;;;;;;8.80;8.30;;;;;;;10.72;52.70;100307.34;5066854;28;20098;-73
2022/04/20 05:42:30;;;;;;;8.40;7.67;;;;;;;10.88;52.25;100298.59;5072627;28;20099;-81
2022/04/20 05:44:56;;;;;;;7.60;7.20;;;;;;;10.95;52.61;100306.66;5064437;28;20062;-79
2022/04/20 05:47:23;;;;;;;7.70;7.30;;;;;;;10.88;52.59;100292.16;5065598;28;20054;-77
2022/04/20 05:49:50;;;;;;;8.37;7.77;;;;;;;10.93;52.70;100292.13;5069306;28;20076;-77
2022/04/20 05:52:17;;;;;;;8.30;7.33;;;;;;;11.10;52.49;100302.91;5052033;28;20139;-78
2022/04/20 05:54:44;;;;;;;8.57;8.07;;;;;;;11.04;52.02;100296.53;5075801;28;20108;-77
2022/04/20 05:57:11;;;;;;;8.57;8.07;;;;;;;11.25;51.73;100318.75;5074427;28;20064;-80
2022/04/20 05:59:39;;;;;;;8.67;8.07;;;;;;;11.34;51.97;100328.16;5079530;28;20044;-83
2022/04/20 06:02:06;;;;;;;9.80;8.90;;;;;;;11.28;51.90;100312.56;5070420;28;20090;-82
2022/04/20 06:04:33;;;;;;;10.17;9.27;;;;;;;11.18;51.64;100295.84;5068140;28;20064;-81
2022/04/20 06:07:00;;;;;;;9.30;8.77;;;;;;;10.98;51.40;100283.72;5077032;28;20131;-82
2022/04/20 06:09:27;;;;;;;9.23;8.43;;;;;;;11.36;51.63;100317.53;5066382;28;20601;-81
2022/04/20 06:11:54;;;;;;;8.47;8.07;;;;;;;11.38;51.62;100334.84;5079404;28;20060;-82
2022/04/20 06:14:20;;;;;;;10.73;10.00;;;;;;;11.18;52.04;100321.00;5071962;28;20068;-81
2022/04/20 06:16:47;;;;;;;8.20;7.80;;;;;;;11.05;52.04;100314.13;5071681;28;20106;-81
2022/04/20 06:19:14;;;;;;;8.93;8.47;;;;;;;11.25;51.62;100316.78;5068775;28;20572;-80
2022/04/20 06:21:41;;;;;;;9.10;8.60;;;;;;;11.44;51.84;100319.69;5070351;28;20144;-80
2022/04/20 06:24:08;;;;;;;8.73;8.33;;;;;;;11.76;51.60;100330.34;5069464;28;20080;-80
2022/04/20 06:26:35;;;;;;;9.37;8.67;;;;;;;11.74;51.72;100307.41;5047278;28;20457;-83
2022/04/20 06:29:03;;;;;;;8.60;8.10;;;;;;;12.19;51.37;100343.66;5059361;28;20147;-81
2022/04/20 06:31:30;;;;;;;8.80;8.40;;;;;;;12.24;51.31;100346.38;5061128;28;20493;-79
2022/04/20 06:33:59;;;;;;;8.50;8.10;;;;;;;12.39;51.08;100351.81;5062423;28;20106;-71
2022/04/20 06:36:26;;;;;;;8.80;8.38;;;;;;;12.47;50.87;100322.31;5058796;28;20143;-78
2022/04/20 06:38:53;;;;;;;12.13;11.47;;;;;;;12.66;50.69;100317.59;5060745;28;20099;-78
2022/04/20 06:41:20;;;;;;;8.70;8.30;;;;;;;13.01;50.42;100363.91;5062148;28;20185;-77
2022/04/20 06:43:47;;;;;;;8.97;8.57;;;;;;;13.00;50.10;100328.63;5047040;28;20064;-81
2022/04/20 06:46:14;;;;;;;8.67;8.17;;;;;;;13.39;49.85;100357.50;5059936;28;20048;-84
2022/04/20 06:48:41;;;;;;;10.23;9.73;;;;;;;13.57;49.62;100364.25;5057839;28;20171;-82
2022/04/20 06:51:08;;;;;;;9.17;8.67;;;;;;;13.71;49.35;100359.53;5048280;28;20059;-81
2022/04/20 06:59:07;;;;;;;8.40;7.90;;;;;;;13.94;48.56;100313.63;5059280;28;20088;-81
2022/04/20 07:01:34;;;;;;;8.37;7.97;;;;;;;14.36;48.43;100364.28;5064096;28;20467;-81
2022/04/20 07:04:01;;;;;;;10.60;10.00;;;;;;;14.54;48.28;100363.38;5064467;28;20053;-80
2022/04/20 07:06:28;;;;;;;9.47;8.70;;;;;;;14.67;48.35;100342.03;5055476;28;20530;-80
2022/04/20 07:08:55;;;;;;;8.33;7.83;;;;;;;14.95;47.68;100342.00;5060824;28;20075;-80
2022/04/20 07:11:21;;;;;;;8.70;8.20;;;;;;;15.18;47.51;100340.91;5070418;28;20512;-80
2022/04/20 07:13:50;;;;;;;8.07;7.53;;;;;;;15.30;47.14;100324.28;5062871;28;20056;-81
2022/04/20 07:16:17;;;;;;;8.47;7.80;;;;;;;15.47;46.76;100320.78;5059103;28;20052;-76
2022/04/20 07:18:45;;;;;;;8.43;7.93;;;;;;;15.96;47.00;100343.50;5055675;28;21951;-82
2022/04/20 07:21:12;;;;;;;8.40;7.80;;;;;;;16.09;47.13;100295.53;5057486;28;20059;-81
2022/04/20 07:23:39;;;;;;;8.63;8.07;;;;;;;16.80;46.94;100334.97;5056647;28;20137;-76
2022/04/20 07:26:06;;;;;;;8.90;8.30;;;;;;;17.42;47.05;100355.63;5055937;28;20107;-75
2022/04/20 07:28:32;;;;;;;9.02;8.50;;;;;;;17.51;44.98;100331.06;5065725;28;20044;-76
2022/04/20 07:31:01;;;;;;;9.07;8.40;;;;;;;17.47;45.50;100330.91;5067776;28;20435;-76
2022/04/20 07:33:28;;;;;;;10.43;9.90;;;;;;;17.44;44.62;100350.50;5062420;28;20044;-76
2022/04/20 07:35:54;;;;;;;11.05;10.00;;;;;;;17.39;44.83;100328.06;5055403;28;20083;-77
2022/04/20 07:38:25;;;;;;;12.27;11.57;;;;;;;17.34;44.36;100314.13;5064139;28;20124;-76
2022/04/20 07:40:53;;;;;;;9.60;8.90;;;;;;;17.40;44.56;100321.25;5066964;28;20507;-75
2022/04/20 07:43:19;;;;;;;10.48;9.88;;;;;;;17.56;44.23;100347.00;5060272;28;20076;-74
2022/04/20 07:45:46;;;;;;;10.40;9.40;;;;;;;17.32;43.50;100339.03;5066984;28;20091;-73
2022/04/20 07:48:13;;;;;;;11.40;9.13;;;;;;;17.16;43.68;100350.81;5054969;28;20080;-75
2022/04/20 07:50:40;;;;;;;9.13;8.63;;;;;;;17.07;43.34;100360.44;5059529;28;20136;-74
2022/04/20 07:53:07;;;;;;;9.93;9.00;;;;;;;16.95;42.95;100338.47;5059616;28;20122;-74
2022/04/20 07:55:34;;;;;;;9.85;9.27;;;;;;;16.98;42.82;100330.19;5058928;28;20056;-73
2022/04/20 07:58:03;;;;;;;13.00;11.80;;;;;;;17.31;43.23;100359.97;5037109;28;20411;-74
2022/04/20 08:00:31;;;;;;;9.30;8.80;;;;;;;17.52;42.88;100363.78;5052857;28;20147;-73
2022/04/20 08:03:19;;;;;;;11.75;10.77;;;;;;;17.49;42.30;100351.16;5055688;28;20202;-73
2022/04/20 08:05:54;;;;;;;10.23;9.43;;;;;;;17.56;42.15;100356.31;5035426;28;20139;-74
2022/04/20 08:08:22;;;;;;;12.15;11.25;;;;;;;17.73;42.10;100358.28;5056295;28;20133;-74
2022/04/20 08:10:49;;;;;;;9.68;9.07;;;;;;;17.70;41.56;100327.88;5054317;28;20136;-74
2022/04/20 08:16:02;;;;;;;9.30;8.70;;;;;;;17.59;41.47;100333.06;5047148;28;20052;-73
2022/04/20 08:18:29;;;;;;;12.10;11.30;;;;;;;17.58;41.25;100348.34;5053264;28;21277;-73
2022/04/20 08:20:57;;;;;;;8.60;8.20;;;;;;;17.64;40.92;100341.38;5036622;28;20059;-74
2022/04/20 08:23:27;;;;;;;8.80;8.30;;;;;;;17.57;40.59;100314.78;5057921;28;20271;-74
2022/04/20 08:25:54;;;;;;;;;;;;;;;17.59;41.21;100344.34;5055277;28;20088;-73
2022/04/20 08:28:21;;;;;;;10.20;9.70;;;;;;;17.50;40.81;100306.81;5050767;28;19956;-73
2022/04/20 08:30:50;;;;;;;10.15;9.50;;;;;;;17.51;40.43;100342.38;5066338;28;20048;-74
2022/04/20 08:33:22;;;;;;;10.82;10.10;;;;;;;17.47;40.12;100347.00;5069669;28;20075;-73
2022/04/20 08:35:51;;;;;;;10.55;9.85;;;;;;;17.75;40.02;100345.50;5062658;28;20522;-73
2022/04/20 08:38:18;;;;;;;11.82;11.02;;;;;;;17.87;39.89;100325.06;5062923;28;20132;-74
2022/04/20 08:40:45;;;;;;;9.25;8.75;;;;;;;17.90;39.71;100315.09;5058888;28;20052;-74
2022/04/20 08:43:12;;;;;;;9.75;9.05;;;;;;;18.20;39.19;100347.94;5064803;28;20503;-74
2022/04/20 08:45:42;;;;;;;9.17;8.70;;;;;;;18.23;39.12;100338.78;5036993;28;20087;-74
2022/04/20 08:48:09;;;;;;;9.50;9.00;;;;;;;18.35;39.12;100343.72;5050121;28;20293;-74
2022/04/20 08:50:37;;;;;;;8.65;8.15;;;;;;;18.73;38.44;100359.88;5054162;28;20054;-74
2022/04/20 08:53:04;;;;;;;9.52;9.02;;;;;;;18.98;38.23;100363.78;5034795;28;20128;-74
2022/04/20 08:55:31;;;;;;;9.20;8.80;;;;;;;19.30;38.16;100369.88;5059203;28;20143;-72
2022/04/20 08:57:59;;;;;;;9.07;8.68;;;;;;;19.40;37.79;100332.66;5064034;28;20415;-74
2022/04/20 09:00:27;;;;;;;10.73;9.93;;;;;;;19.81;37.28;100336.66;5067552;28;20448;-74
2022/04/20 09:02:57;;;;;;;9.10;8.70;;;;;;;20.18;36.69;100368.81;5065293;28;20881;-73
2022/04/20 09:05:28;;;;;;;10.82;10.27;;;;;;;20.35;36.64;100374.28;5064042;28;20057;-74
2022/04/20 09:07:56;;;;;;;9.60;8.95;;;;;;;20.53;36.71;100377.75;5065791;28;20414;-74
2022/04/20 09:10:24;;;;;;;9.35;8.85;;;;;;;20.45;35.97;100367.34;5068434;28;20056;-74
2022/04/20 09:13:06;;;;;;;8.60;8.20;;;;;;;20.45;35.94;100366.50;5069242;28;20462;-74
2022/04/20 09:15:34;;;;;;;8.70;8.30;;;;;;;20.48;35.76;100343.13;5070843;28;20048;-74
2022/04/20 09:18:02;;;;;;;9.00;8.45;;;;;;;20.63;35.64;100352.97;5054666;28;20493;-74
2022/04/20 09:20:34;;;;;;;9.07;8.50;;;;;;;20.61;35.56;100327.75;5065926;28;20052;-73
2022/04/20 09:23:07;;;;;;;8.52;8.02;;;;;;;20.66;35.22;100346.59;5075128;28;20048;-75
2022/04/20 09:25:48;;;;;;;8.60;8.10;;;;;;;20.88;35.09;100334.75;5075651;28;20084;-74
2022/04/20 09:28:15;;;;;;;8.70;8.23;;;;;;;20.90;34.88;100315.34;5057251;28;20123;-74
2022/04/20 09:30:43;;;;;;;8.95;8.55;;;;;;;21.11;34.40;100337.91;5070270;28;20072;-73
2022/04/20 09:33:10;;;;;;;9.25;8.75;;;;;;;21.08;34.03;100321.59;5058267;28;20131;-74
2022/04/20 09:35:48;;;;;;;10.30;9.70;;;;;;;20.77;34.15;100317.38;5075962;28;20048;-75
2022/04/20 09:38:20;;;;;;;9.25;8.70;;;;;;;20.67;33.96;100294.31;5042554;28;20474;-74
2022/04/20 09:40:50;;;;;;;9.30;8.48;;;;;;;21.14;33.83;100342.06;5075667;28;20084;-74
2022/04/20 09:43:19;;;;;;;9.02;8.63;;;;;;;21.34;33.83;100337.41;5073432;28;20079;-74
2022/04/20 09:48:50;;;;;;;8.88;8.48;;;;;;;21.20;33.34;100343.47;5075918;28;20107;-74
2022/04/20 09:49:14;;;;;;;8.80;8.20;;;;;;;21.18;33.36;100320.28;5066238;28;20049;-74
2022/04/20 09:51:42;;;;;;;9.40;8.90;;;;;;;21.32;33.01;100342.63;5063716;28;20075;-75
2022/04/20 09:54:29;;;;;;;9.10;8.60;;;;;;;21.40;32.99;100359.56;5072378;28;20048;-74
2022/04/20 09:57:12;;;;;;;10.60;9.80;;;;;;;21.57;32.77;100349.09;5071019;28;21806;-75
2022/04/20 09:59:58;;;;;;;8.80;8.30;;;;;;;;;;5057106;28;20048;-74
2022/04/20 10:02:53;;;;;;;9.60;9.20;;;;;;;21.36;32.09;100333.03;5064180;28;20058;-74
2022/04/20 10:05:22;;;;;;;9.10;8.70;;;;;;;21.41;31.99;100337.66;5067119;28;20041;-74
2022/04/20 10:07:53;;;;;;;9.02;8.32;;;;;;;21.66;31.71;100346.94;5068353;28;20381;-75
2022/04/20 10:10:20;;;;;;;8.45;8.00;;;;;;;21.83;31.90;100292.63;5066544;28;20503;-74
2022/04/20 10:12:51;;;;;;;9.10;8.45;;;;;;;22.13;31.74;100283.69;5067972;28;20103;-75
2022/04/20 10:18:05;;;;;;;8.77;8.35;;;;;;;23.21;31.00;100324.22;5065700;28;20055;-74
2022/04/20 10:20:33;;;;;;;8.93;8.32;;;;;;;23.61;30.37;100327.56;5063424;28;20155;-74
2022/04/20 10:23:05;;;;;;;8.93;8.52;;;;;;;23.77;30.08;100319.00;5070218;28;20075;-74
2022/04/20 10:25:32;;;;;;;9.18;8.75;;;;;;;24.01;29.76;100317.00;5071884;28;20098;-75
2022/04/20 10:28:17;;;;;;;8.88;8.32;;;;;;;24.25;29.46;100310.97;5072853;28;20040;-74
2022/04/20 10:31:27;;;;;;;9.60;8.80;;;;;;;24.51;29.99;100353.06;5070550;28;20473;-74
2022/04/20 10:33:54;;;;;;;11.60;10.20;;;;;;;24.67;29.40;100329.25;5055801;28;20106;-73
2022/04/20 10:36:29;;;;;;;9.65;9.15;;;;;;;25.04;29.41;100343.75;5051574;28;20049;-74
2022/04/20 10:39:26;;;;;;;9.73;9.23;;;;;;;25.12;29.03;100341.84;5062560;28;20579;-74
2022/04/20 10:42:11;;;;;;;9.82;9.35;;;;;;;25.32;29.03;100357.66;5063797;28;20056;-74
2022/04/20 10:45:16;;;;;;;10.75;10.05;;;;;;;25.57;28.95;100342.88;5067788;28;20452;-75
2022/04/20 10:47:44;;;;;;;10.63;9.93;;;;;;;25.57;28.50;100360.03;4990021;28;20252;-75
2022/04/20 10:50:19;;;;;;;9.40;8.90;;;;;;;25.24;27.83;100356.72;5052624;28;20052;-73
2022/04/20 10:53:04;;;;;;;10.73;10.13;;;;;;;25.09;27.74;100296.84;5066656;28;20053;-75
2022/04/20 10:55:32;;;;;;;10.60;9.90;;;;;;;26.12;27.40;100349.75;5067307;28;20052;-74
2022/04/20 10:58:04;;;;;;;10.18;9.40;;;;;;;26.50;25.81;100352.66;5070320;28;20044;-74
2022/04/20 11:00:36;;;;;;;10.10;9.32;;;;;;;26.92;25.50;100335.81;5071740;28;20080;-73
2022/04/20 11:03:10;;;;;;;9.75;9.25;;;;;;;27.00;25.33;100336.69;5055675;28;20086;-74
2022/04/20 11:05:54;;;;;;;9.70;9.30;;;;;;;26.15;25.76;100346.13;5061629;28;20074;-75
2022/04/20 11:08:23;;;;;;;13.02;12.32;;;;;;;26.07;25.66;100343.56;5064659;28;20136;-74
2022/04/20 11:19:33;;;;;;;13.50;12.65;;;;;;;25.44;26.33;100325.19;5068403;28;20542;-75
2022/04/20 11:22:08;;;;;;;11.30;10.60;;;;;;;25.54;26.43;100330.22;5070954;28;20040;-74
2022/04/20 11:24:41;;;;;;;10.80;10.07;;;;;;;25.97;26.39;100342.22;5067633;28;20139;-75
2022/04/20 11:27:08;;;;;;;10.60;10.05;;;;;;;25.87;26.45;100309.41;5053234;28;20076;-75
2022/04/20 11:29:35;;;;;;;10.50;9.77;;;;;;;26.39;25.82;100333.28;5071324;28;20132;-75
2022/04/20 11:32:04;;;;;;;10.13;9.52;;;;;;;26.64;25.57;100321.28;5050448;28;20180;-75
2022/04/20 11:34:33;;;;;;;13.07;12.47;;;;;;;26.59;25.26;100318.75;5063551;28;20044;-75
2022/04/20 11:37:02;;;;;;;9.63;9.13;;;;;;;26.58;25.47;100300.75;5064971;28;20076;-75
2022/04/20 11:39:30;;;;;;;12.30;11.70;;;;;;;26.91;25.47;100298.97;5048800;28;20135;-74
2022/04/20 11:42:02;;;;;;;9.90;9.30;;;;;;;27.10;25.00;100333.09;5055091;28;20207;-75
2022/04/20 11:44:35;;;;;;;9.30;8.80;;;;;;;26.82;25.24;100327.16;5064196;28;20105;-76
2022/04/20 11:47:07;;;;;;;10.98;10.38;;;;;;;26.62;25.53;100290.16;5065460;28;20129;-75
2022/04/20 11:49:44;;;;;;;11.73;11.13;;;;;;;25.69;25.52;100262.59;5064566;28;20399;-76
2022/04/20 11:52:14;;;;;;;13.30;12.60;;;;;;;24.75;25.75;100323.28;5068012;28;20131;-75
2022/04/20 11:54:46;;;;;;;14.02;12.80;;;;;;;24.19;26.57;100271.69;5033167;28;20048;-76
2022/04/20 11:57:15;;;;;;;11.57;10.88;;;;;;;24.34;26.79;100313.53;5073386;28;20053;-75
2022/04/20 11:59:47;;;;;;;;;;;;;;;24.38;27.07;100293.66;5073755;28;20542;-75
2022/04/20 12:02:16;;;;;;;13.88;13.18;;;;;;;24.54;26.58;100278.03;5073051;28;19947;-75
2022/04/20 12:04:43;;;;;;;9.77;9.18;;;;;;;24.81;25.68;100301.75;5071529;28;20048;-77